createdAt,value
2018-06-05T00:00:42.010Z,98310.84
2018-06-05T00:03:14.317Z,98318.60
2018-06-05T00:05:46.558Z,98322.55
2018-06-05T00:08:19.155Z,98330.70
2018-06-05T00:10:51.974Z,98341.77
2018-06-05T00:13:24.921Z,98340.11
2018-06-05T00:15:57.103Z,98335.05
2018-06-05T00:18:30.686Z,98339.81
2018-06-05T00:21:02.706Z,98348.19
2018-06-05T00:23:35.387Z,98347.45
2018-06-05T00:26:08.085Z,98351.61
2018-06-05T00:28:40.152Z,98356.25
2018-06-05T00:31:11.908Z,98355.64
2018-06-05T00:33:44.059Z,98355.64
2018-06-05T00:36:16.707Z,98351.52
2018-06-05T00:38:49.155Z,98357.72
2018-06-05T00:41:21.670Z,98357.72
2018-06-05T00:43:53.469Z,98362.06
2018-06-05T00:46:26.462Z,98366.03
2018-06-05T00:48:58.802Z,98362.21
2018-06-05T00:51:40.537Z,98364.28
2018-06-05T00:54:13.227Z,98365.20
2018-06-05T00:56:45.820Z,98374.31
2018-06-05T00:59:18.474Z,98379.69
2018-06-05T01:01:51.081Z,98383.72
2018-06-05T01:04:23.193Z,98392.67
2018-06-05T01:06:56.212Z,98400.74
2018-06-05T01:09:28.905Z,98397.16
2018-06-05T01:12:01.604Z,98403.27
2018-06-05T01:14:33.933Z,98408.66
2018-06-05T01:17:06.279Z,98413.72
2018-06-05T01:19:39.177Z,98416.11
2018-06-05T01:22:11.353Z,98426.44
2018-06-05T01:24:43.847Z,98427.78
2018-06-05T01:27:15.843Z,98436.78
2018-06-05T01:29:48.219Z,98439.48
2018-06-05T01:32:20.580Z,98435.75
2018-06-05T01:34:52.872Z,98442.10
2018-06-05T01:37:26.244Z,98441.38
2018-06-05T01:39:59.186Z,98438.37
2018-06-05T01:42:32.329Z,98439.94
2018-06-05T01:45:04.691Z,98441.58
2018-06-05T01:47:36.911Z,98448.82
2018-06-05T01:50:08.854Z,98449.03
2018-06-05T01:52:41.332Z,98452.56
2018-06-05T01:55:13.789Z,98453.23
2018-06-05T01:57:45.752Z,98452.77
2018-06-05T02:00:18.125Z,98450.23
2018-06-05T02:02:49.925Z,98453.64
2018-06-05T02:05:22.600Z,98453.48
2018-06-05T02:07:54.731Z,98456.03
2018-06-05T02:10:27.023Z,98459.27
2018-06-05T02:12:59.169Z,98466.13
2018-06-05T02:15:32.228Z,98468.84
2018-06-05T02:18:04.382Z,98461.85
2018-06-05T02:20:37.160Z,98468.57
2018-06-05T02:23:09.643Z,98469.47
2018-06-05T02:25:42.349Z,98472.46
2018-06-05T02:28:14.422Z,98471.73
2018-06-05T02:30:46.748Z,98471.53
2018-06-05T02:33:19.047Z,98481.39
2018-06-05T02:35:51.657Z,98482.73
2018-06-05T02:38:24.443Z,98483.94
2018-06-05T02:40:56.717Z,98484.45
2018-06-05T02:43:29.284Z,98482.18
2018-06-05T02:46:01.307Z,98480.01
2018-06-05T02:48:33.952Z,98499.52
2018-06-05T02:51:06.877Z,98495.41
2018-06-05T02:53:39.527Z,98493.09
2018-06-05T02:56:12.373Z,98496.23
2018-06-05T02:58:44.635Z,98493.76
2018-06-05T03:01:17.562Z,98492.63
2018-06-05T03:03:49.540Z,98491.89
2018-06-05T03:06:21.637Z,98490.10
2018-06-05T03:08:54.367Z,98496.30
2018-06-05T03:11:27.334Z,98501.30
2018-06-05T03:13:59.913Z,98490.41
2018-06-05T03:16:32.120Z,98490.86
2018-06-05T03:19:04.845Z,98493.00
2018-06-05T03:21:36.866Z,98493.62
2018-06-05T03:24:08.843Z,98495.78
2018-06-05T03:26:42.424Z,98499.41
2018-06-05T03:29:15.220Z,98495.37
2018-06-05T03:31:47.774Z,98488.64
2018-06-05T03:34:21.221Z,98495.06
2018-06-05T03:36:53.952Z,98499.09
2018-06-05T03:39:27.155Z,98491.92
2018-06-05T03:42:00.677Z,98499.30
2018-06-05T03:44:34.983Z,98503.74
2018-06-05T03:47:07.442Z,98493.20
2018-06-05T03:49:42.926Z,98486.27
2018-06-05T03:52:15.147Z,98495.88
2018-06-05T03:54:52.477Z,98494.74
2018-06-05T03:57:28.397Z,98487.19
2018-06-05T04:00:06.116Z,98496.08
2018-06-05T04:02:45.061Z,98492.56
2018-06-05T04:05:25.290Z,98495.78
2018-06-05T04:08:06.747Z,98486.47
2018-06-05T04:10:48.457Z,98486.47
2018-06-05T04:13:26.036Z,98490.19
2018-06-05T04:16:02.116Z,98486.77
2018-06-05T04:18:39.003Z,98484.39
2018-06-05T04:21:15.326Z,98484.98
2018-06-05T04:23:53.080Z,98496.77
2018-06-05T04:26:32.745Z,98490.97
2018-06-05T04:29:13.737Z,98492.11
2018-06-05T04:31:53.532Z,98490.76
2018-06-05T04:34:33.862Z,98483.28
2018-06-05T04:37:15.180Z,98486.06
2018-06-05T04:39:57.770Z,98488.02
2018-06-05T04:42:39.598Z,98485.97
2018-06-05T04:45:23.582Z,98478.74
2018-06-05T04:48:08.144Z,98484.29
2018-06-05T04:50:51.521Z,98492.98
2018-06-05T04:53:33.358Z,98476.48
2018-06-05T04:56:16.730Z,98479.48
2018-06-05T04:59:01.035Z,98483.28
2018-06-05T05:01:45.390Z,98475.14
2018-06-05T05:04:28.336Z,98485.43
2018-06-05T05:07:01.950Z,98481.09
2018-06-05T05:09:35.016Z,98478.47
2018-06-05T05:12:08.033Z,98479.59
2018-06-05T05:14:45.325Z,98472.31
2018-06-05T05:17:25.386Z,98469.63
2018-06-05T05:20:06.159Z,98470.45
2018-06-05T05:22:48.583Z,98472.00
2018-06-05T05:25:21.371Z,98468.37
2018-06-05T05:27:54.708Z,98472.92
2018-06-05T05:30:32.965Z,98469.87
2018-06-05T05:33:12.957Z,98460.41
2018-06-05T05:35:51.076Z,98462.57
2018-06-05T05:38:24.387Z,98457.14
2018-06-05T05:40:56.856Z,98456.84
2018-06-05T05:43:30.031Z,98452.98
2018-06-05T05:46:03.248Z,98445.80
2018-06-05T05:48:36.164Z,98453.64
2018-06-05T05:51:09.217Z,98449.91
2018-06-05T05:53:41.743Z,98448.89
2018-06-05T05:56:14.497Z,98446.56
2018-06-05T05:58:47.038Z,98441.40
2018-06-05T06:01:19.262Z,98445.00
2018-06-05T06:03:52.053Z,98439.19
2018-06-05T06:06:25.198Z,98437.08
2018-06-05T06:08:58.037Z,98437.08
2018-06-05T06:11:30.819Z,98438.73
2018-06-05T06:14:03.660Z,98437.69
2018-06-05T06:16:36.503Z,98428.72
2018-06-05T06:19:09.492Z,98427.38
2018-06-05T06:21:41.497Z,98422.61
2018-06-05T06:24:14.395Z,98433.20
2018-06-05T06:26:47.152Z,98417.91
2018-06-05T06:29:20.195Z,98415.06
2018-06-05T06:31:53.092Z,98412.62
2018-06-05T06:34:26.345Z,98407.97
2018-06-05T06:36:59.130Z,98407.97
2018-06-05T06:39:32.009Z,98397.73
2018-06-05T06:42:05.048Z,98390.91
2018-06-05T06:45:03.821Z,98395.82
2018-06-05T06:47:37.656Z,98391.48
2018-06-05T06:50:10.988Z,98384.53
2018-06-05T06:52:43.914Z,98378.48
2018-06-05T06:55:16.566Z,98379.66
2018-06-05T06:57:49.515Z,98377.87
2018-06-05T07:00:22.376Z,98371.75
2018-06-05T07:02:54.856Z,98368.97
2018-06-05T07:05:30.953Z,98363.97
2018-06-05T07:08:06.273Z,98359.93
2018-06-05T07:10:43.675Z,98356.16
2018-06-05T07:13:18.452Z,98359.93
2018-06-05T07:15:56.077Z,98354.58
2018-06-05T07:18:32.690Z,98351.90
2018-06-05T07:21:08.062Z,98344.34
2018-06-05T07:26:39.477Z,98338.51
2018-06-05T07:29:14.374Z,98337.30
2018-06-05T07:31:50.308Z,98335.05
2018-06-05T07:34:25.849Z,98330.25
2018-06-05T07:37:01.119Z,98337.14
2018-06-05T07:39:37.551Z,98339.09
2018-06-05T07:42:13.286Z,98334.20
2018-06-05T07:44:49.096Z,98331.91
2018-06-05T07:47:26.649Z,98326.45
2018-06-05T07:50:14.704Z,98317.63
2018-06-05T07:52:54.099Z,98317.09
2018-06-05T07:55:30.687Z,98307.67
2018-06-05T07:58:06.820Z,98305.57
2018-06-05T08:00:42.009Z,98301.80
2018-06-05T08:03:18.320Z,98289.23
2018-06-05T08:05:54.493Z,98286.95
2018-06-05T08:08:30.999Z,98274.56
2018-06-05T08:11:06.554Z,98273.80
2018-06-05T08:13:43.396Z,98270.34
2018-06-05T08:16:20.832Z,98276.84
2018-06-05T08:18:58.907Z,98275.39
2018-06-05T08:21:35.904Z,98271.91
2018-06-05T08:24:16.078Z,98267.52
2018-06-05T08:27:09.343Z,98265.36
2018-06-05T08:29:49.831Z,98264.13
2018-06-05T08:32:24.975Z,98256.93
2018-06-05T08:35:01.073Z,98250.49
2018-06-05T08:37:37.699Z,98245.96
2018-06-05T08:40:13.062Z,98238.28
2018-06-05T08:42:47.861Z,98238.86
2018-06-05T08:45:25.334Z,98231.41
2018-06-05T08:48:00.558Z,98227.80
2018-06-05T08:50:37.655Z,98211.48
2018-06-05T08:53:15.385Z,98204.16
2018-06-05T08:55:53.073Z,98202.58
2018-06-05T08:58:29.452Z,98196.88
2018-06-05T09:01:06.945Z,98190.12
2018-06-05T09:03:43.959Z,98189.67
2018-06-05T09:06:19.149Z,98190.20
2018-06-05T09:08:54.454Z,98181.09
2018-06-05T09:11:34.909Z,98169.54
2018-06-05T09:14:09.929Z,98164.87
2018-06-05T09:16:48.954Z,98160.33
2018-06-05T09:19:24.769Z,98154.12
2018-06-05T09:21:59.902Z,98154.25
2018-06-05T09:24:34.856Z,98153.68
2018-06-05T09:27:12.880Z,98150.06
2018-06-05T09:29:48.840Z,98148.67
2018-06-05T09:32:27.798Z,98149.17
2018-06-05T09:35:05.337Z,98143.18
2018-06-05T09:37:44.410Z,98142.13
2018-06-05T09:40:20.949Z,98134.04
2018-06-05T09:43:01.932Z,98126.16
2018-06-05T09:45:40.610Z,98116.25
2018-06-05T09:48:23.770Z,98108.83
2018-06-05T09:51:06.815Z,98106.04
2018-06-05T09:53:50.330Z,98096.30
2018-06-05T09:56:30.819Z,98096.39
2018-06-05T09:59:13.393Z,98100.44
2018-06-05T10:01:54.804Z,98094.75
2018-06-05T10:04:35.265Z,98091.58
2018-06-05T10:07:13.931Z,98092.42
2018-06-05T10:09:57.180Z,98086.27
2018-06-05T10:12:38.569Z,98074.50
2018-06-05T10:15:22.938Z,98079.89
2018-06-05T10:18:04.059Z,98072.56
2018-06-05T10:20:47.779Z,98066.13
2018-06-05T10:23:28.760Z,98055.84
2018-06-05T10:26:10.291Z,98058.50
2018-06-05T10:28:48.992Z,98056.28
2018-06-05T10:31:29.556Z,98057.86
2018-06-05T10:34:13.961Z,98060.47
2018-06-05T10:36:50.891Z,98055.81
2018-06-05T10:39:28.932Z,98055.22
2018-06-05T10:42:13.830Z,98043.84
2018-06-05T10:44:54.374Z,98042.80
2018-06-05T10:47:36.747Z,98044.91
2018-06-05T10:50:23.443Z,98039.77
2018-06-05T10:53:11.234Z,98041.06
2018-06-05T10:55:56.054Z,98040.83
2018-06-05T10:58:44.212Z,98031.42
2018-06-05T11:01:23.656Z,98036.81
2018-06-05T11:04:04.423Z,98033.06
2018-06-05T11:06:41.104Z,98033.80
2018-06-05T11:09:22.431Z,98028.05
2018-06-05T11:12:04.569Z,98026.23
2018-06-05T11:14:46.498Z,98013.51
2018-06-05T11:17:26.574Z,98005.66
2018-06-05T11:20:06.666Z,98009.14
2018-06-05T11:22:44.639Z,98014.33
2018-06-05T11:25:23.004Z,98013.51
2018-06-05T11:27:57.898Z,98005.95
2018-06-05T11:30:33.603Z,98009.44
2018-06-05T11:33:06.458Z,98014.33
2018-06-05T11:35:39.798Z,98010.78
2018-06-05T11:38:13.666Z,98015.06
2018-06-05T11:40:46.587Z,98009.97
2018-06-05T11:43:19.414Z,98006.77
2018-06-05T11:45:52.374Z,98005.66
2018-06-05T11:48:24.942Z,98002.93
2018-06-05T11:50:58.400Z,98003.52
2018-06-05T11:53:32.206Z,98002.17
2018-06-05T11:56:04.791Z,98009.17
2018-06-05T11:58:37.760Z,98013.51
2018-06-05T12:01:10.516Z,98020.78
2018-06-05T12:03:44.042Z,98018.34
2018-06-05T12:06:16.983Z,98016.17
2018-06-05T12:08:49.788Z,98010.73
2018-06-05T12:11:22.161Z,98017.17
2018-06-05T12:13:55.064Z,98010.95
2018-06-05T12:16:28.527Z,98004.75
2018-06-05T12:19:01.748Z,98002.05
2018-06-05T12:21:34.445Z,98000.23
2018-06-05T12:24:07.861Z,97999.94
2018-06-05T12:26:40.669Z,98004.86
2018-06-05T12:29:14.304Z,98011.40
2018-06-05T12:31:47.016Z,98012.75
2018-06-05T12:34:20.072Z,98011.61
2018-06-05T12:36:53.297Z,98012.66
2018-06-05T12:39:26.460Z,98016.70
2018-06-05T12:41:59.354Z,98017.76
2018-06-05T12:44:32.535Z,98021.80
2018-06-05T12:47:04.878Z,98016.85
2018-06-05T12:49:38.252Z,98018.02
2018-06-05T12:52:12.270Z,98024.05
2018-06-05T12:54:44.979Z,98023.82
2018-06-05T12:57:17.837Z,98028.98
2018-06-05T12:59:51.148Z,98038.95
2018-06-05T13:02:24.211Z,98043.81
2018-06-05T13:04:57.711Z,98038.65
2018-06-05T13:07:31.179Z,98041.05
2018-06-05T13:10:05.023Z,98031.91
2018-06-05T13:12:39.222Z,98031.49
2018-06-05T13:15:13.505Z,98033.13
2018-06-05T13:17:47.564Z,98035.53
2018-06-05T13:20:23.389Z,98035.04
2018-06-05T13:22:56.590Z,98035.04
2018-06-05T13:25:30.586Z,98035.42
2018-06-05T13:28:04.491Z,98032.67
2018-06-05T13:30:41.605Z,98039.08
2018-06-05T13:33:15.668Z,98044.80
2018-06-05T13:35:49.686Z,98051.22
2018-06-05T13:38:23.248Z,98056.31
2018-06-05T13:40:56.951Z,98057.39
2018-06-05T13:43:30.709Z,98059.00
2018-06-05T13:46:04.532Z,98067.09
2018-06-05T13:48:38.377Z,98067.30
2018-06-05T13:51:15.914Z,98069.62
2018-06-05T13:53:50.698Z,98073.80
2018-06-05T13:56:24.711Z,98080.84
2018-06-05T13:58:58.455Z,98078.38
2018-06-05T14:01:33.061Z,98086.75
2018-06-05T14:04:06.780Z,98093.63
2018-06-05T14:06:40.638Z,98094.16
2018-06-05T14:09:14.338Z,98106.48
2018-06-05T14:11:47.962Z,98102.83
2018-06-05T14:14:20.920Z,98109.05
2018-06-05T14:16:55.048Z,98114.44
2018-06-05T14:19:28.633Z,98119.76
2018-06-05T14:22:02.090Z,98126.14
2018-06-05T14:24:35.594Z,98129.39
2018-06-05T14:27:10.057Z,98132.42
2018-06-05T14:29:44.068Z,98140.50
2018-06-05T14:32:17.488Z,98140.97
2018-06-05T14:34:50.948Z,98139.32
2018-06-05T14:37:24.341Z,98151.98
2018-06-05T14:39:58.981Z,98147.94
2018-06-05T14:42:32.363Z,98150.92
2018-06-05T14:45:07.150Z,98154.15
2018-06-05T14:47:40.895Z,98158.95
2018-06-05T14:50:16.449Z,98159.77
2018-06-05T14:52:49.777Z,98163.81
2018-06-05T14:55:25.403Z,98164.86
2018-06-05T14:57:59.791Z,98172.72
2018-06-05T15:00:34.223Z,98177.29
2018-06-05T15:03:08.278Z,98170.02
2018-06-05T15:05:41.490Z,98179.76
2018-06-05T15:08:15.684Z,98180.81
2018-06-05T15:10:49.557Z,98181.67
2018-06-05T15:13:23.907Z,98192.19
2018-06-05T15:15:57.635Z,98195.14
2018-06-05T15:18:31.215Z,98192.34
2018-06-05T15:21:04.765Z,98202.67
2018-06-05T15:23:38.584Z,98200.73
2018-06-05T15:26:12.751Z,98200.14
2018-06-05T15:28:47.466Z,98200.66
2018-06-05T15:31:21.580Z,98205.53
2018-06-05T15:33:55.830Z,98217.36
2018-06-05T15:36:30.336Z,98224.44
2018-06-05T15:39:05.073Z,98234.95
2018-06-05T15:41:39.277Z,98241.09
2018-06-05T15:44:12.652Z,98242.56
2018-06-05T15:46:46.645Z,98251.47
2018-06-05T15:49:20.228Z,98246.64
2018-06-05T15:51:53.955Z,98254.50
2018-06-05T15:54:28.495Z,98256.15
2018-06-05T15:57:02.855Z,98260.04
2018-06-05T15:59:38.193Z,98261.65
2018-06-05T16:02:12.595Z,98262.95
2018-06-05T16:04:48.149Z,98261.65
2018-06-05T16:07:22.573Z,98268.65
2018-06-05T16:09:56.282Z,98274.30
2018-06-05T16:12:30.740Z,98275.95
2018-06-05T16:15:04.348Z,98279.70
2018-06-05T16:17:38.338Z,98285.09
2018-06-05T16:20:12.878Z,98291.30
2018-06-05T16:22:47.032Z,98293.42
2018-06-05T16:25:20.818Z,98301.26
2018-06-05T16:27:54.383Z,98307.20
2018-06-05T16:30:28.476Z,98309.34
2018-06-05T16:33:01.890Z,98312.82
2018-06-05T16:35:35.835Z,98308.06
2018-06-05T16:38:10.521Z,98307.38
2018-06-05T16:40:46.327Z,98313.90
2018-06-05T16:43:20.047Z,98320.19
2018-06-05T16:45:54.482Z,98323.67
2018-06-05T16:48:29.869Z,98313.18
2018-06-05T16:51:03.633Z,98323.03
2018-06-05T16:53:37.369Z,98320.71
2018-06-05T16:56:11.089Z,98323.18
2018-06-05T16:58:49.289Z,98335.88
2018-06-05T17:01:25.199Z,98344.22
2018-06-05T17:03:59.404Z,98352.83
2018-06-05T17:06:32.715Z,98362.00
2018-06-05T17:09:08.790Z,98359.83
2018-06-05T17:11:43.389Z,98363.00
2018-06-05T17:14:17.468Z,98364.13
2018-06-05T17:16:50.782Z,98370.27
2018-06-05T17:19:26.081Z,98373.19
2018-06-05T17:21:59.644Z,98371.69
2018-06-05T17:24:34.307Z,98374.66
2018-06-05T17:27:08.035Z,98377.08
2018-06-05T17:29:42.522Z,98378.05
2018-06-05T17:32:19.285Z,98389.95
2018-06-05T17:34:52.997Z,98394.00
2018-06-05T17:37:26.725Z,98395.64
2018-06-05T17:40:01.962Z,98399.09
2018-06-05T17:42:35.329Z,98392.05
2018-06-05T17:45:11.262Z,98392.87
2018-06-05T17:47:46.564Z,98393.09
2018-06-05T17:50:20.461Z,98395.06
2018-06-05T17:52:54.653Z,98391.63
2018-06-05T17:55:28.790Z,98394.92
2018-06-05T17:58:03.020Z,98398.95
2018-06-05T18:00:36.812Z,98408.61
2018-06-05T18:03:10.844Z,98411.23
2018-06-05T18:05:45.179Z,98414.22
2018-06-05T18:08:20.494Z,98413.18
2018-06-05T18:10:55.954Z,98412.12
2018-06-05T18:13:30.903Z,98409.66
2018-06-05T18:16:04.834Z,98403.23
2018-06-05T18:18:38.352Z,98402.94
2018-06-05T18:21:12.364Z,98406.73
2018-06-05T18:23:47.048Z,98410.11
2018-06-05T18:26:22.010Z,98406.12
2018-06-05T18:28:58.135Z,98410.58
2018-06-05T18:31:31.714Z,98401.37
2018-06-05T18:34:05.255Z,98405.93
2018-06-05T18:36:39.286Z,98400.63
2018-06-05T18:41:37.058Z,98401.22
2018-06-05T18:44:10.799Z,98402.71
2018-06-05T18:46:44.676Z,98400.09
2018-06-05T18:49:19.808Z,98400.92
2018-06-05T18:51:53.546Z,98399.50
2018-06-05T18:54:27.355Z,98402.27
2018-06-05T18:57:01.089Z,98404.19
2018-06-05T18:59:35.770Z,98401.97
2018-06-05T19:02:09.681Z,98397.92
2018-06-05T19:04:43.225Z,98395.98
2018-06-05T19:07:16.731Z,98393.06
2018-06-05T19:09:50.393Z,98393.72
2018-06-05T19:12:24.005Z,98382.70
2018-06-05T19:14:58.754Z,98386.69
2018-06-05T19:17:32.529Z,98383.61
2018-06-05T19:20:06.635Z,98386.83
2018-06-05T19:22:44.328Z,98389.38
2018-06-05T19:25:17.981Z,98383.39
2018-06-05T19:27:52.029Z,98383.47
2018-06-05T19:30:26.856Z,98384.73
2018-06-05T19:33:01.393Z,98379.05
2018-06-05T19:35:36.346Z,98385.34
2018-06-05T19:38:10.014Z,98382.05
2018-06-05T19:40:47.133Z,98380.87
2018-06-05T19:43:21.102Z,98379.05
2018-06-05T19:45:55.518Z,98370.97
2018-06-05T19:48:29.250Z,98381.73
2018-06-05T19:51:03.499Z,98369.84
2018-06-05T19:53:37.192Z,98373.83
2018-06-05T19:56:10.988Z,98369.63
2018-06-05T19:58:44.438Z,98373.75
2018-06-05T20:01:18.353Z,98376.09
2018-06-05T20:03:51.776Z,98377.87
2018-06-05T20:06:25.733Z,98376.83
2018-06-05T20:08:59.786Z,98370.75
2018-06-05T20:11:35.692Z,98372.92
2018-06-05T20:14:09.094Z,98375.40
2018-06-05T20:16:43.821Z,98373.45
2018-06-05T20:19:17.690Z,98375.79
2018-06-05T20:21:52.377Z,98377.05
2018-06-05T20:24:27.865Z,98373.23
2018-06-05T20:27:01.338Z,98379.22
2018-06-05T20:29:34.636Z,98380.18
2018-06-05T20:32:07.944Z,98376.36
2018-06-05T20:34:42.116Z,98381.53
2018-06-05T20:37:16.156Z,98378.48
2018-06-05T20:39:49.464Z,98375.05
2018-06-05T20:42:22.985Z,98368.38
2018-06-05T20:44:56.707Z,98363.59
2018-06-05T20:47:30.522Z,98367.50
2018-06-05T20:50:04.781Z,98354.47
2018-06-05T20:52:39.477Z,98355.21
2018-06-05T20:55:13.414Z,98359.77
2018-06-05T20:57:47.191Z,98354.94
2018-06-05T21:00:21.166Z,98352.91
2018-06-05T21:02:54.393Z,98341.69
2018-06-05T21:05:28.757Z,98341.30
2018-06-05T21:08:02.548Z,98334.19
2018-06-05T21:10:37.746Z,98336.88
2018-06-05T21:13:11.685Z,98333.75
2018-06-05T21:15:45.262Z,98325.45
2018-06-05T21:18:19.352Z,98325.45
2018-06-05T21:20:52.273Z,98319.68
2018-06-05T21:23:25.426Z,98321.50
2018-06-05T21:25:59.899Z,98313.20
2018-06-05T21:28:34.517Z,98315.52
2018-06-05T21:31:08.799Z,98317.37
2018-06-05T21:33:42.591Z,98333.62
2018-06-05T21:36:16.105Z,98325.54
2018-06-05T21:38:49.745Z,98332.41
2018-06-05T21:41:23.055Z,98334.44
2018-06-05T21:43:56.768Z,98323.67
2018-06-05T21:46:29.996Z,98315.81
2018-06-05T21:49:02.819Z,98318.20
2018-06-05T21:51:36.628Z,98319.77
2018-06-05T21:54:10.146Z,98338.40
2018-06-05T21:56:43.092Z,98337.36
2018-06-05T21:59:16.699Z,98338.57
2018-06-05T22:01:49.107Z,98333.45
2018-06-05T22:04:21.982Z,98326.89
2018-06-05T22:06:54.439Z,98327.33
2018-06-05T22:09:28.388Z,98332.58
2018-06-05T22:12:01.055Z,98340.36
2018-06-05T22:14:34.507Z,98345.30
2018-06-05T22:17:07.604Z,98359.20
2018-06-05T22:19:40.860Z,98364.06
2018-06-05T22:22:13.733Z,98368.02
2018-06-05T22:24:47.296Z,98366.98
2018-06-05T22:27:19.848Z,98360.63
2018-06-05T22:29:53.711Z,98356.42
2018-06-05T22:32:26.195Z,98353.65
2018-06-05T22:34:59.613Z,98347.96
2018-06-05T22:37:32.134Z,98347.44
2018-06-05T22:40:05.598Z,98354.26
2018-06-05T22:42:38.628Z,98355.16
2018-06-05T22:45:11.448Z,98354.56
2018-06-05T22:47:44.943Z,98353.59
2018-06-05T22:50:18.282Z,98342.75
2018-06-05T22:52:50.905Z,98356.51
2018-06-05T22:55:24.271Z,98359.94
2018-06-05T22:57:56.519Z,98352.73
2018-06-05T23:00:35.933Z,98357.47
2018-06-05T23:03:09.243Z,98368.59
2018-06-05T23:05:42.485Z,98380.13
2018-06-05T23:08:16.043Z,98387.13
2018-06-05T23:10:48.973Z,98410.17
2018-06-05T23:13:22.002Z,98420.34
2018-06-05T23:15:55.241Z,98424.03
2018-06-05T23:18:28.028Z,98428.42
2018-06-05T23:21:01.422Z,98427.38
2018-06-05T23:23:34.382Z,98441.58
2018-06-05T23:26:07.367Z,98443.75
2018-06-05T23:28:40.452Z,98452.34
2018-06-05T23:31:13.985Z,98453.78
2018-06-05T23:33:47.452Z,98457.12
2018-06-05T23:36:20.526Z,98462.99
2018-06-05T23:38:53.362Z,98467.34
2018-06-05T23:41:26.410Z,98487.66
2018-06-05T23:43:59.907Z,98504.48
2018-06-05T23:46:32.621Z,98520.39
2018-06-05T23:49:04.649Z,98516.81
2018-06-05T23:51:37.885Z,98518.47
2018-06-05T23:54:10.558Z,98528.10
2018-06-05T23:56:42.947Z,98531.16
2018-06-05T23:59:15.945Z,98527.43
